Time;durP1;ratioP1;P1;durP2;ratioP2;P2;SDS_P1;SDS_P2;PMS_P1;PMS_P2;Temp;Humidity;BMP_temperature;BMP_pressure;BME280_temperature;BME280_humidity;BME280_pressure;Samples;Min_cycle;Max_cycle;Signal;HPM_P1;HPM_P2
2023/04/08 00:00:39;;;;;;;10.40;9.40;;;;;;;5.57;71.01;101096.39;103695;268;39409;-72
2023/04/08 00:03:25;;;;;;;10.60;9.60;;;;;;;5.55;70.97;101091.71;103654;280;38814;-71
2023/04/08 00:06:01;;;;;;;11.90;10.70;;;;;;;5.55;71.05;101091.73;103669;280;39407;-73
2023/04/08 00:08:35;;;;;;;13.60;12.10;;;;;;;5.51;70.96;101092.80;103646;280;38239;-72
2023/04/08 00:11:09;;;;;;;14.30;12.60;;;;;;;5.49;71.06;101093.48;103657;280;38501;-72
2023/04/08 00:13:44;;;;;;;15.50;13.90;;;;;;;5.48;70.90;101090.38;103658;280;40479;-72
2023/04/08 00:16:19;;;;;;;15.60;14.00;;;;;;;5.46;71.00;101093.16;103721;280;39415;-72
2023/04/08 00:18:53;;;;;;;17.00;14.70;;;;;;;5.47;71.17;101103.19;103669;280;38498;-71
2023/04/08 00:21:27;;;;;;;17.30;14.20;;;;;;;5.46;71.07;101107.52;103685;280;39686;-70
2023/04/08 00:24:01;;;;;;;16.20;14.00;;;;;;;5.44;71.08;101105.29;103656;280;38781;-71
2023/04/08 00:26:36;;;;;;;12.30;10.90;;;;;;;5.43;71.24;101106.48;103682;280;38250;-71
2023/04/08 00:29:11;;;;;;;10.40;9.40;;;;;;;5.41;71.22;101104.09;103660;280;38710;-73
2023/04/08 00:31:44;;;;;;;10.90;9.50;;;;;;;5.42;71.30;101107.37;103676;280;39441;-73
2023/04/08 00:34:18;;;;;;;10.80;9.80;;;;;;;5.44;71.24;101105.98;103624;280;38522;-72
2023/04/08 00:36:52;;;;;;;12.10;10.40;;;;;;;5.45;71.34;101100.95;103668;278;38563;-73
2023/04/08 00:39:27;;;;;;;11.80;10.60;;;;;;;5.47;71.31;101101.30;103678;280;38464;-72
2023/04/08 00:42:00;;;;;;;11.80;10.40;;;;;;;5.48;71.44;101099.38;103724;272;38259;-72
2023/04/08 00:44:35;;;;;;;11.60;10.50;;;;;;;5.50;71.55;101104.73;103628;280;38560;-72
2023/04/08 00:47:09;;;;;;;10.70;9.50;;;;;;;5.50;71.48;101106.81;103690;280;38242;-71
2023/04/08 00:49:43;;;;;;;10.10;9.10;;;;;;;5.47;71.21;101107.52;103505;282;38637;-71
2023/04/08 00:52:18;;;;;;;10.20;9.20;;;;;;;5.46;71.29;101107.35;103691;280;38943;-72
2023/04/08 00:54:52;;;;;;;9.40;8.50;;;;;;;5.45;71.01;101107.68;103471;280;38293;-72
2023/04/08 00:57:26;;;;;;;10.50;9.50;;;;;;;5.39;70.82;101108.08;103686;280;38279;-69
2023/04/08 01:00:00;;;;;;;10.70;9.60;;;;;;;5.37;70.86;101108.43;103684;280;39526;-70
2023/04/08 01:02:48;;;;;;;9.60;8.30;;;;;;;5.34;71.04;101112.94;103026;280;912604;-69
2023/04/08 01:05:28;;;;;;;9.60;8.60;;;;;;;5.29;70.94;101116.08;103688;280;39663;-74
2023/04/08 01:08:02;;;;;;;9.30;8.40;;;;;;;5.27;71.06;101125.95;103602;280;38233;-75
2023/04/08 01:10:37;;;;;;;10.00;8.50;;;;;;;5.26;71.13;101125.27;103656;296;38358;-72
2023/04/08 01:13:12;;;;;;;10.10;9.10;;;;;;;5.27;71.20;101124.23;103654;280;40318;-74
2023/04/08 01:15:46;;;;;;;10.50;9.40;;;;;;;5.29;71.27;101124.22;103686;280;38541;-69
2023/04/08 01:18:20;;;;;;;10.40;9.30;;;;;;;5.28;71.36;101125.77;103647;280;39483;-69
2023/04/08 01:20:54;;;;;;;10.40;9.30;;;;;;;5.26;71.28;101129.92;103675;280;38529;-70
2023/04/08 01:23:33;;;;;;;9.80;8.80;;;;;;;5.21;71.28;101125.46;103654;280;40095;-69
2023/04/08 01:26:07;;;;;;;10.10;9.10;;;;;;;5.20;71.50;101128.92;103662;280;38276;-72
2023/04/08 01:28:42;;;;;;;9.40;8.40;;;;;;;5.20;71.65;101133.58;103676;280;39923;-71
2023/04/08 01:31:16;;;;;;;11.00;9.40;;;;;;;5.19;71.58;101133.07;103684;280;39403;-70
2023/04/08 01:33:50;;;;;;;10.10;9.00;;;;;;;5.17;71.64;101137.92;103640;280;38726;-72
2023/04/08 01:36:25;;;;;;;10.50;9.40;;;;;;;5.14;71.66;101138.27;103103;280;39283;-73
2023/04/08 01:38:59;;;;;;;11.70;10.00;;;;;;;5.09;71.70;101137.95;103657;280;38227;-72
2023/04/08 01:41:33;;;;;;;10.80;9.60;;;;;;;5.02;71.68;101137.80;103674;280;40323;-68
2023/04/08 01:44:07;;;;;;;10.00;8.90;;;;;;;4.95;71.76;101133.66;103655;280;38810;-68
2023/04/08 01:46:42;;;;;;;10.80;9.40;;;;;;;4.89;71.85;101132.98;103696;280;39470;-74
2023/04/08 01:49:17;;;;;;;10.00;8.90;;;;;;;4.82;71.94;101135.78;103632;280;38515;-73
2023/04/08 01:51:51;;;;;;;10.90;9.80;;;;;;;4.75;71.99;101135.27;103693;280;39669;-72
2023/04/08 01:54:25;;;;;;;11.90;10.70;;;;;;;4.68;72.13;101128.70;103640;280;39121;-71
2023/04/08 01:57:00;;;;;;;11.40;10.10;;;;;;;4.60;72.23;101134.77;103001;280;911792;-71
2023/04/08 01:59:36;;;;;;;11.10;9.80;;;;;;;4.52;72.43;101136.16;103675;280;38426;-71
2023/04/08 02:02:10;;;;;;;10.50;9.40;;;;;;;4.45;72.38;101138.77;103554;280;38255;-68
2023/04/08 02:04:44;;;;;;;11.20;10.10;;;;;;;4.38;72.62;101138.95;103508;281;39678;-70
2023/04/08 02:07:18;;;;;;;10.70;9.00;;;;;;;4.33;72.72;101147.41;103713;280;38660;-74
2023/04/08 02:09:52;;;;;;;11.70;10.40;;;;;;;4.28;72.88;101162.27;103658;280;39679;-73
2023/04/08 02:12:28;;;;;;;12.30;10.50;;;;;;;4.21;73.09;101169.85;103696;280;39653;-69
2023/04/08 02:15:03;;;;;;;13.10;11.70;;;;;;;4.15;73.22;101169.15;103668;280;38488;-69
2023/04/08 02:17:40;;;;;;;12.90;11.40;;;;;;;4.10;73.27;101170.36;103676;280;38675;-71
2023/04/08 02:20:19;;;;;;;13.00;11.60;;;;;;;4.02;73.32;101168.27;103724;280;39715;-68
2023/04/08 02:22:56;;;;;;;12.50;11.20;;;;;;;3.94;73.46;101171.71;103673;280;38987;-71
2023/04/08 02:25:30;;;;;;;11.70;10.40;;;;;;;3.83;73.57;101172.89;103671;280;40082;-71
2023/04/08 02:28:04;;;;;;;11.60;10.10;;;;;;;3.74;73.59;101174.77;103680;280;39721;-73
2023/04/08 02:30:41;;;;;;;12.00;10.50;;;;;;;3.63;73.65;101173.70;103663;280;39680;-71
2023/04/08 02:33:15;;;;;;;13.70;11.30;;;;;;;3.52;73.81;101174.88;103632;280;39629;-70
2023/04/08 02:35:49;;;;;;;12.50;10.80;;;;;;;3.43;73.96;101174.33;103665;280;39501;-71
2023/04/08 02:38:26;;;;;;;13.50;11.20;;;;;;;3.32;74.14;101177.38;103532;282;38582;-71
2023/04/08 02:41:00;;;;;;;12.50;10.20;;;;;;;3.18;74.14;101175.58;103664;280;38406;-73
2023/04/08 02:43:36;;;;;;;13.40;10.20;;;;;;;3.06;74.42;101181.73;103669;280;39007;-73
2023/04/08 02:46:10;;;;;;;14.70;10.90;;;;;;;2.99;74.61;101180.48;103751;280;38370;-71
2023/04/08 02:48:44;;;;;;;12.40;10.20;;;;;;;2.92;74.77;101185.27;103638;280;38225;-71
2023/04/08 02:51:18;;;;;;;13.70;10.70;;;;;;;2.84;74.94;101190.73;103664;280;38631;-71
2023/04/08 02:53:52;;;;;;;13.90;11.20;;;;;;;2.71;74.92;101199.77;103660;280;38515;-68
2023/04/08 02:56:26;;;;;;;13.90;10.80;;;;;;;2.60;75.11;101197.95;103676;279;39679;-70
2023/04/08 02:59:00;;;;;;;13.60;10.50;;;;;;;2.51;75.22;101195.48;103702;280;38619;-71
2023/04/08 03:01:35;;;;;;;13.10;10.70;;;;;;;2.43;75.49;101199.54;103680;280;38602;-70
2023/04/08 03:04:09;;;;;;;13.80;10.80;;;;;;;2.37;75.75;101205.00;103648;280;39470;-68
2023/04/08 03:06:43;;;;;;;14.40;10.70;;;;;;;2.30;75.89;101208.90;103677;279;38243;-72
2023/04/08 03:09:16;;;;;;;12.90;10.80;;;;;;;2.21;75.83;101217.08;103494;280;39563;-72
2023/04/08 03:11:53;;;;;;;14.10;11.50;;;;;;;2.12;75.96;101222.66;103536;281;39194;-73
2023/04/08 03:14:27;;;;;;;14.10;10.70;;;;;;;2.01;75.90;101223.76;103670;280;38233;-72
2023/04/08 03:17:01;;;;;;;13.70;10.50;;;;;;;1.92;76.30;101226.57;103683;280;38772;-70
2023/04/08 03:19:35;;;;;;;13.20;10.10;;;;;;;1.85;76.52;101229.27;103681;280;38788;-69
2023/04/08 03:22:09;;;;;;;12.50;10.50;;;;;;;1.82;76.71;101232.50;103667;293;40168;-74
2023/04/08 03:24:44;;;;;;;12.40;10.50;;;;;;;1.81;77.07;101230.06;103625;279;38522;-73
2023/04/08 03:27:17;;;;;;;13.00;11.50;;;;;;;1.78;77.12;101232.80;103687;280;39599;-71
2023/04/08 03:29:51;;;;;;;15.30;11.70;;;;;;;1.72;77.11;101237.17;103624;280;39686;-71
2023/04/08 03:32:25;;;;;;;14.50;10.70;;;;;;;1.62;77.17;101239.64;103692;280;39653;-70
2023/04/08 03:34:59;;;;;;;13.50;10.60;;;;;;;1.56;77.47;101240.08;103682;280;38506;-69
2023/04/08 03:37:33;;;;;;;12.00;9.70;;;;;;;1.49;77.49;101242.07;103714;280;38512;-71
2023/04/08 03:40:10;;;;;;;13.70;11.40;;;;;;;1.46;77.88;101242.55;103704;268;38704;-68
2023/04/08 03:42:45;;;;;;;13.50;11.40;;;;;;;1.44;77.92;101246.11;103703;280;37924;-68
2023/04/08 03:45:19;;;;;;;54.50;25.60;;;;;;;1.42;78.01;101245.41;103654;280;39601;-70
2023/04/08 03:47:53;;;;;;;35.90;18.50;;;;;;;1.38;78.08;101246.21;103681;280;38637;-68
2023/04/08 03:50:27;;;;;;;30.70;17.00;;;;;;;1.34;78.22;101246.84;103681;280;39412;-69
2023/04/08 03:53:01;;;;;;;40.60;20.00;;;;;;;1.30;78.19;101250.75;103642;280;38723;-71
2023/04/08 03:55:35;;;;;;;40.50;20.30;;;;;;;1.24;78.13;101250.66;103681;280;38272;-71
2023/04/08 03:58:09;;;;;;;38.30;21.70;;;;;;;1.18;78.25;101251.95;103687;280;38727;-73
2023/04/08 04:00:43;;;;;;;37.10;20.50;;;;;;;1.15;78.51;101253.10;103706;280;39174;-68
2023/04/08 04:03:17;;;;;;;38.50;20.80;;;;;;;1.11;78.67;101254.77;103668;280;39556;-69
2023/04/08 04:05:52;;;;;;;34.90;18.20;;;;;;;1.05;78.72;101254.85;103618;280;39690;-69
2023/04/08 04:08:25;;;;;;;27.70;16.30;;;;;;;1.00;78.79;101257.02;103679;269;39677;-68
2023/04/08 04:11:00;;;;;;;28.60;16.10;;;;;;;0.97;78.91;101262.13;103668;280;38828;-71
2023/04/08 04:13:35;;;;;;;25.40;15.20;;;;;;;0.98;79.24;101263.34;103667;280;39508;-73
2023/04/08 04:16:09;;;;;;;23.20;15.50;;;;;;;1.01;79.35;101261.31;103650;280;38628;-70
2023/04/08 04:18:43;;;;;;;25.10;16.40;;;;;;;1.02;79.51;101264.95;103669;280;39005;-68
2023/04/08 04:21:17;;;;;;;25.10;15.00;;;;;;;0.99;79.64;101268.00;103699;280;38787;-68
2023/04/08 04:23:51;;;;;;;24.50;14.20;;;;;;;0.97;79.82;101264.88;103698;280;38352;-69
2023/04/08 04:26:25;;;;;;;21.10;14.00;;;;;;;0.96;79.86;101266.75;103711;280;40424;-70
2023/04/08 04:29:00;;;;;;;18.30;12.80;;;;;;;0.96;79.96;101271.90;103662;279;38276;-68
2023/04/08 04:31:34;;;;;;;18.90;13.30;;;;;;;0.99;80.19;101276.59;103563;280;39843;-74
2023/04/08 04:34:08;;;;;;;22.60;14.40;;;;;;;1.04;80.50;101283.20;103645;280;38964;-73
2023/04/08 04:36:41;;;;;;;20.60;14.30;;;;;;;1.08;80.65;101281.01;103712;280;39698;-70
2023/04/08 04:39:15;;;;;;;19.80;13.60;;;;;;;1.12;80.73;101286.21;103675;280;38327;-70
2023/04/08 04:41:50;;;;;;;17.10;12.90;;;;;;;1.19;81.00;101289.60;103688;280;39910;-69
2023/04/08 04:44:24;;;;;;;19.20;12.00;;;;;;;1.76;82.81;101290.57;103656;280;38526;-68
2023/04/08 04:46:59;;;;;;;15.50;11.50;;;;;;;2.61;84.36;101292.88;103683;279;38239;-71
2023/04/08 04:49:32;;;;;;;17.00;12.20;;;;;;;3.32;84.71;101290.85;103651;268;39651;-72
2023/04/08 04:52:07;;;;;;;15.00;11.70;;;;;;;3.77;82.93;101292.81;103685;280;38272;-71
2023/04/08 04:54:40;;;;;;;15.80;12.30;;;;;;;4.32;82.69;101298.54;103657;280;38577;-71
2023/04/08 04:57:15;;;;;;;16.90;12.00;;;;;;;4.88;81.88;101293.42;103655;280;38480;-69
2023/04/08 04:59:48;;;;;;;18.00;15.10;;;;;;;5.17;79.42;101292.91;103650;280;38559;-68
2023/04/08 05:02:22;;;;;;;19.00;14.60;;;;;;;5.39;78.70;101293.21;103675;280;39919;-69
2023/04/08 05:04:57;;;;;;;18.90;14.50;;;;;;;5.66;78.04;101294.70;103682;280;38715;-70
2023/04/08 05:07:31;;;;;;;18.20;12.80;;;;;;;6.00;77.34;101299.63;103669;280;38630;-68
2023/04/08 05:10:06;;;;;;;18.60;13.40;;;;;;;6.15;76.40;101298.19;103552;280;172472;-70
2023/04/08 05:12:40;;;;;;;15.40;12.40;;;;;;;6.26;75.83;101299.69;103725;280;39428;-71
2023/04/08 05:15:20;;;;;;;15.60;12.90;;;;;;;6.55;75.66;101298.98;103651;280;39438;-69
2023/04/08 05:17:54;;;;;;;16.20;13.30;;;;;;;6.81;74.14;101297.42;103681;280;39001;-74
2023/04/08 05:20:28;;;;;;;14.40;12.70;;;;;;;6.99;73.67;101292.06;103700;280;40141;-71
2023/04/08 05:23:02;;;;;;;15.10;12.30;;;;;;;7.23;72.77;101300.17;103676;280;38221;-70
2023/04/08 05:25:36;;;;;;;16.40;13.20;;;;;;;7.65;73.38;101306.17;103658;280;38655;-71
2023/04/08 05:28:11;;;;;;;13.80;12.10;;;;;;;8.51;73.36;101305.27;103633;280;38359;-69
2023/04/08 05:30:45;;;;;;;13.60;11.60;;;;;;;9.46;71.70;101303.18;103666;280;38237;-71
2023/04/08 05:33:19;;;;;;;12.40;11.10;;;;;;;10.36;69.22;101301.55;103632;280;39682;-71
2023/04/08 05:35:53;;;;;;;13.50;11.50;;;;;;;11.25;66.00;101299.93;103658;280;39028;-72
2023/04/08 05:38:27;;;;;;;12.70;11.10;;;;;;;12.19;63.94;101306.25;103645;280;38538;-73
2023/04/08 05:41:00;;;;;;;12.60;10.80;;;;;;;12.93;59.62;101298.54;103096;280;917675;-69
2023/04/08 05:43:36;;;;;;;12.30;10.60;;;;;;;13.39;55.85;101301.38;103667;280;39628;-70
2023/04/08 05:46:12;;;;;;;10.60;9.40;;;;;;;13.83;55.96;101298.92;103716;280;39447;-71
2023/04/08 05:48:46;;;;;;;11.30;10.20;;;;;;;14.24;53.18;101298.25;103525;280;39014;-71
2023/04/08 05:51:20;;;;;;;11.40;10.30;;;;;;;14.77;53.83;101294.09;103715;280;38336;-71
2023/04/08 05:53:54;;;;;;;12.30;10.50;;;;;;;15.29;52.08;101298.58;103660;280;38357;-70
2023/04/08 05:56:29;;;;;;;12.30;9.70;;;;;;;15.35;50.01;101299.58;103677;280;38842;-70
2023/04/08 05:59:03;;;;;;;11.00;9.80;;;;;;;14.88;48.99;101305.96;103507;281;38955;-71
2023/04/08 06:01:37;;;;;;;11.00;9.90;;;;;;;14.61;49.68;101311.98;103673;280;39838;-71
2023/04/08 06:04:16;;;;;;;11.30;10.10;;;;;;;14.89;49.19;101315.59;103664;280;39631;-70
2023/04/08 06:06:50;;;;;;;11.90;10.10;;;;;;;15.51;49.37;101318.05;103570;281;38256;-73
2023/04/08 06:09:24;;;;;;;11.00;9.80;;;;;;;16.03;46.05;101316.66;103667;279;39390;-73
2023/04/08 06:11:58;;;;;;;10.80;9.70;;;;;;;16.39;45.05;101316.54;103667;280;40359;-70
2023/04/08 06:14:32;;;;;;;10.80;9.70;;;;;;;16.95;42.56;101320.58;103673;280;38756;-70
2023/04/08 06:17:06;;;;;;;10.70;9.60;;;;;;;17.14;43.05;101312.42;103666;280;39412;-75
2023/04/08 06:19:40;;;;;;;9.30;8.40;;;;;;;17.67;42.60;101311.61;103632;280;38818;-75
2023/04/08 06:22:14;;;;;;;11.80;8.70;;;;;;;18.11;42.06;101312.79;103707;280;38542;-74
2023/04/08 06:24:50;;;;;;;10.00;8.90;;;;;;;18.72;40.08;101309.25;103667;280;38919;-74
2023/04/08 06:27:23;;;;;;;8.90;8.00;;;;;;;19.20;39.36;101308.22;103716;280;39470;-75
2023/04/08 06:29:58;;;;;;;8.90;8.10;;;;;;;19.56;37.59;101311.58;103639;280;38836;-75
2023/04/08 06:32:32;;;;;;;9.60;8.70;;;;;;;19.49;37.45;101317.63;103691;280;38502;-74
2023/04/08 06:35:07;;;;;;;8.50;7.70;;;;;;;19.54;37.07;101314.33;103638;280;39655;-72
2023/04/08 06:37:42;;;;;;;9.70;8.00;;;;;;;19.79;35.35;101312.32;103671;280;38227;-74
2023/04/08 06:40:17;;;;;;;8.60;7.60;;;;;;;19.72;35.88;101315.44;103700;280;38228;-73
2023/04/08 06:42:51;;;;;;;8.60;7.70;;;;;;;19.97;35.93;101316.20;103658;280;38873;-73
2023/04/08 06:45:25;;;;;;;9.00;8.20;;;;;;;20.17;34.84;101318.47;103692;280;39878;-73
2023/04/08 06:47:59;;;;;;;9.80;8.80;;;;;;;19.89;34.23;101319.84;103611;280;39898;-75
2023/04/08 06:50:33;;;;;;;10.00;9.10;;;;;;;19.68;34.39;101322.72;103681;280;40032;-73
2023/04/08 06:53:06;;;;;;;9.60;8.60;;;;;;;19.58;34.65;101319.58;103661;280;39685;-73
2023/04/08 06:55:40;;;;;;;10.20;8.80;;;;;;;19.36;34.89;101322.70;103663;280;39654;-75
2023/04/08 06:58:14;;;;;;;9.90;9.00;;;;;;;19.18;35.21;101320.03;103697;280;39439;-75
2023/04/08 07:00:48;;;;;;;9.40;8.60;;;;;;;19.35;35.64;101329.10;103720;280;38905;-73
2023/04/08 07:03:22;;;;;;;10.30;9.30;;;;;;;19.74;35.21;101328.55;103643;280;38352;-73
2023/04/08 07:05:57;;;;;;;10.30;9.40;;;;;;;20.21;34.73;101331.84;103672;280;38885;-73
2023/04/08 07:08:31;;;;;;;9.80;8.90;;;;;;;20.64;33.61;101330.89;103674;280;40117;-71
2023/04/08 07:11:05;;;;;;;9.10;8.30;;;;;;;20.95;33.55;101332.06;103541;282;40244;-73
2023/04/08 07:13:40;;;;;;;8.50;7.90;;;;;;;21.25;32.45;101334.29;103666;279;40007;-75
2023/04/08 07:16:14;;;;;;;8.70;7.80;;;;;;;21.40;32.01;101327.64;103603;280;174565;-73
2023/04/08 07:18:48;;;;;;;8.10;7.40;;;;;;;21.57;31.84;101334.09;103664;280;38259;-73
2023/04/08 07:21:22;;;;;;;8.40;7.70;;;;;;;21.53;31.01;101334.91;103522;281;39641;-73
2023/04/08 07:23:56;;;;;;;8.40;7.70;;;;;;;21.52;31.60;101334.95;103700;280;38387;-74
2023/04/08 07:26:30;;;;;;;8.10;7.30;;;;;;;21.68;31.10;101333.20;103625;268;38432;-75
2023/04/08 07:29:04;;;;;;;8.00;7.30;;;;;;;21.84;30.81;101332.37;103662;280;38397;-75
2023/04/08 07:31:38;;;;;;;8.10;7.30;;;;;;;21.84;30.37;101329.40;103693;280;38988;-73
2023/04/08 07:34:12;;;;;;;8.10;7.40;;;;;;;22.01;31.50;101333.65;103629;280;38666;-73
2023/04/08 07:36:46;;;;;;;8.60;7.90;;;;;;;22.42;30.32;101333.64;103672;279;39490;-74
2023/04/08 07:39:20;;;;;;;8.70;7.90;;;;;;;22.55;29.89;101331.77;103599;280;39404;-74
2023/04/08 07:41:54;;;;;;;8.80;8.00;;;;;;;22.53;29.65;101334.58;103698;280;39563;-75
2023/04/08 07:44:28;;;;;;;8.70;7.50;;;;;;;22.41;28.77;101334.24;103627;280;39451;-74
2023/04/08 07:47:02;;;;;;;9.00;8.10;;;;;;;22.47;29.49;101333.80;103710;280;38490;-73
2023/04/08 07:49:36;;;;;;;7.70;7.00;;;;;;;22.70;29.07;101327.14;103555;280;39312;-73
2023/04/08 07:52:10;;;;;;;8.30;7.50;;;;;;;22.99;28.71;101330.12;103666;280;38274;-74
2023/04/08 07:54:44;;;;;;;7.80;7.20;;;;;;;23.30;28.53;101329.91;103631;280;38502;-74
2023/04/08 07:57:18;;;;;;;7.90;7.10;;;;;;;23.75;28.90;101334.02;103687;268;39694;-74
2023/04/08 07:59:52;;;;;;;7.90;7.20;;;;;;;23.99;27.36;101338.47;103735;280;38244;-74
2023/04/08 08:02:26;;;;;;;7.30;6.70;;;;;;;24.29;28.26;101337.20;103532;280;39193;-73
2023/04/08 08:05:02;;;;;;;7.10;6.50;;;;;;;24.72;27.37;101337.94;103647;280;38483;-73
2023/04/08 08:07:36;;;;;;;7.60;6.90;;;;;;;24.95;26.51;101329.79;103735;280;39637;-73
2023/04/08 08:10:12;;;;;;;6.90;6.30;;;;;;;25.07;26.39;101330.10;103579;280;174718;-74
2023/04/08 08:12:46;;;;;;;6.90;6.40;;;;;;;25.34;26.28;101326.58;103671;280;38308;-75
2023/04/08 08:15:20;;;;;;;7.30;6.70;;;;;;;25.67;26.39;101331.76;103712;280;39956;-74
2023/04/08 08:17:55;;;;;;;6.40;5.90;;;;;;;26.06;25.62;101327.82;103709;280;38461;-74
2023/04/08 08:20:29;;;;;;;7.10;6.60;;;;;;;26.37;25.39;101327.02;103772;268;39827;-74
2023/04/08 08:23:03;;;;;;;7.00;6.30;;;;;;;26.55;24.45;101324.89;103653;280;38899;-75
2023/04/08 08:25:38;;;;;;;6.80;6.30;;;;;;;26.52;24.67;101321.47;103660;280;38673;-74
2023/04/08 08:28:12;;;;;;;6.10;5.60;;;;;;;26.65;24.57;101318.98;103818;280;39568;-74
2023/04/08 08:30:46;;;;;;;7.20;6.50;;;;;;;26.74;24.11;101321.43;103708;280;38483;-77
2023/04/08 08:33:20;;;;;;;6.70;6.20;;;;;;;26.75;24.33;101320.05;103698;280;39252;-77
2023/04/08 08:35:56;;;;;;;7.10;6.50;;;;;;;26.89;24.09;101318.27;103652;280;38629;-76
2023/04/08 08:38:30;;;;;;;6.60;6.10;;;;;;;27.04;23.79;101318.10;103673;280;39879;-75
2023/04/08 08:41:04;;;;;;;6.30;5.80;;;;;;;27.19;24.06;101321.15;103684;280;38979;-75
2023/04/08 08:43:38;;;;;;;6.80;6.20;;;;;;;27.34;23.41;101322.31;103645;280;39620;-76
2023/04/08 08:46:15;;;;;;;6.30;5.90;;;;;;;27.47;23.32;101321.21;103701;280;38632;-76
2023/04/08 08:48:49;;;;;;;6.80;6.20;;;;;;;27.65;22.54;101321.29;103701;280;38532;-75
2023/04/08 08:51:23;;;;;;;7.00;6.50;;;;;;;27.53;22.54;101323.36;103682;280;38347;-74
2023/04/08 08:53:57;;;;;;;6.80;6.30;;;;;;;27.52;22.33;101322.56;103536;280;188646;-74
2023/04/08 08:56:32;;;;;;;6.40;5.90;;;;;;;27.48;22.58;101320.29;103703;280;39424;-75
2023/04/08 08:59:06;;;;;;;6.40;5.80;;;;;;;27.58;22.97;101321.82;103652;280;39387;-74
2023/04/08 09:01:42;;;;;;;7.20;6.50;;;;;;;27.65;21.90;101320.45;103695;280;38535;-76
2023/04/08 09:04:18;;;;;;;6.60;6.00;;;;;;;27.56;21.80;101323.64;103679;280;39048;-78
2023/04/08 09:07:10;;;;;;;6.10;5.70;;;;;;;27.16;22.15;101321.98;103641;280;38224;-75
2023/04/08 09:09:53;;;;;;;7.10;6.50;;;;;;;27.18;22.40;101323.08;103698;280;38280;-75
2023/04/08 09:12:30;;;;;;;6.50;6.00;;;;;;;27.20;22.69;101320.75;103587;282;38732;-75
2023/04/08 09:15:13;;;;;;;6.60;5.90;;;;;;;27.12;22.45;101323.11;103676;280;38249;-76
2023/04/08 09:17:47;;;;;;;6.90;6.30;;;;;;;27.40;22.95;101322.63;103515;280;39777;-75
2023/04/08 09:20:21;;;;;;;6.90;6.40;;;;;;;27.69;22.67;101321.17;103637;280;39652;-75
2023/04/08 09:23:02;;;;;;;7.20;6.60;;;;;;;27.75;21.87;101326.14;103658;279;38807;-75
2023/04/08 09:25:37;;;;;;;6.50;6.00;;;;;;;27.41;22.25;101327.06;103653;280;39536;-74
2023/04/08 09:28:20;;;;;;;6.80;6.20;;;;;;;27.36;22.09;101328.20;103679;280;39447;-74
2023/04/08 09:30:55;;;;;;;6.80;6.30;;;;;;;27.20;22.36;101334.67;103688;280;38236;-75
2023/04/08 09:33:35;;;;;;;6.80;6.30;;;;;;;27.29;22.55;101334.23;103499;280;39644;-75
2023/04/08 09:36:09;;;;;;;6.50;6.00;;;;;;;27.18;22.92;101327.88;103356;280;522915;-74
2023/04/08 09:38:43;;;;;;;6.60;6.10;;;;;;;27.05;23.09;101334.52;103584;280;171721;-74
2023/04/08 09:41:19;;;;;;;6.80;6.30;;;;;;;26.72;22.70;101333.35;103688;280;39171;-75
2023/04/08 09:43:54;;;;;;;7.60;6.90;;;;;;;26.18;23.05;101330.02;103673;280;38516;-76
2023/04/08 09:46:37;;;;;;;7.50;6.80;;;;;;;25.42;23.40;101334.79;103657;280;39946;-75
2023/04/08 09:49:17;;;;;;;7.60;6.90;;;;;;;24.59;24.14;101334.42;103630;280;38243;-75
2023/04/08 09:52:00;;;;;;;7.30;6.70;;;;;;;23.75;25.07;101330.17;103699;279;38288;-75
2023/04/08 09:54:52;;;;;;;8.00;7.20;;;;;;;22.92;25.41;101336.69;103653;280;38409;-73
2023/04/08 09:57:36;;;;;;;7.60;7.00;;;;;;;22.25;26.03;101336.43;103669;280;38600;-74
2023/04/08 10:00:14;;;;;;;7.20;6.60;;;;;;;21.78;27.11;101332.66;103639;280;39623;-75
2023/04/08 10:02:56;;;;;;;8.60;7.80;;;;;;;21.43;27.34;101329.38;103668;280;38750;-75
2023/04/08 10:05:31;;;;;;;7.70;6.90;;;;;;;21.09;28.06;101332.20;103524;280;38525;-73
2023/04/08 10:08:05;;;;;;;8.50;7.80;;;;;;;20.64;28.25;101334.98;103687;280;38280;-75
2023/04/08 10:10:40;;;;;;;7.80;7.20;;;;;;;20.22;29.22;101330.85;103558;280;38229;-74
2023/04/08 10:13:14;;;;;;;7.40;6.80;;;;;;;20.02;29.31;101331.24;103687;280;39222;-76
2023/04/08 10:15:48;;;;;;;7.70;7.10;;;;;;;19.70;29.69;101329.13;103432;280;174950;-73
2023/04/08 10:18:36;;;;;;;7.90;7.20;;;;;;;19.48;29.72;101329.04;103669;280;38346;-74
2023/04/08 10:21:27;;;;;;;8.00;7.30;;;;;;;19.15;29.45;101325.86;103671;280;39949;-73
2023/04/08 10:24:05;;;;;;;7.70;7.00;;;;;;;18.82;30.28;101323.89;103668;280;38573;-73
2023/04/08 10:26:43;;;;;;;8.00;7.30;;;;;;;18.69;30.91;101324.10;103670;280;38228;-73
2023/04/08 10:29:34;;;;;;;8.10;7.40;;;;;;;18.52;31.04;101322.54;103679;280;38440;-74
2023/04/08 10:32:08;;;;;;;7.30;6.70;;;;;;;18.37;31.03;101321.10;103676;280;40397;-74
2023/04/08 10:34:53;;;;;;;8.50;7.70;;;;;;;18.32;31.22;101325.25;103663;280;38391;-75
2023/04/08 10:37:27;;;;;;;8.10;7.40;;;;;;;18.13;31.70;101323.66;103707;280;39099;-72
2023/04/08 10:40:01;;;;;;;7.80;7.00;;;;;;;17.96;31.81;101319.09;103663;280;39434;-73
2023/04/08 10:42:35;;;;;;;8.20;7.40;;;;;;;17.80;32.66;101314.48;103697;280;39886;-75
2023/04/08 10:45:12;;;;;;;8.90;8.00;;;;;;;17.77;32.81;101315.17;103645;280;38237;-74
2023/04/08 10:47:46;;;;;;;9.00;8.20;;;;;;;17.64;32.80;101312.85;103519;282;38241;-72
2023/04/08 10:50:22;;;;;;;8.60;7.70;;;;;;;17.49;33.07;101318.17;103672;280;38703;-73
2023/04/08 10:52:56;;;;;;;8.10;7.40;;;;;;;17.33;33.27;101317.41;103521;280;38275;-74
2023/04/08 10:55:31;;;;;;;8.30;7.40;;;;;;;17.19;32.78;101320.78;103667;280;37311;-75
2023/04/08 10:58:11;;;;;;;8.70;7.80;;;;;;;17.05;33.43;101317.59;103513;280;38756;-75
2023/04/08 11:00:45;;;;;;;7.90;7.20;;;;;;;16.97;33.26;101312.34;103510;280;38422;-74
2023/04/08 11:03:19;;;;;;;7.60;6.90;;;;;;;16.87;33.29;101313.91;103647;280;38836;-72
2023/04/08 11:05:53;;;;;;;8.10;7.40;;;;;;;16.78;33.46;101311.02;103672;280;38540;-73
2023/04/08 11:08:32;;;;;;;7.40;6.70;;;;;;;16.68;33.65;101312.34;103702;280;38247;-72
2023/04/08 11:11:09;;;;;;;7.70;7.00;;;;;;;16.59;33.67;101306.98;103688;280;38371;-73
2023/04/08 11:13:45;;;;;;;7.80;7.00;;;;;;;16.43;33.96;101305.30;103678;280;39404;-73
2023/04/08 11:16:19;;;;;;;7.70;6.70;;;;;;;16.30;34.03;101306.60;103683;280;38427;-72
2023/04/08 11:18:54;;;;;;;7.70;7.00;;;;;;;16.24;34.42;101308.10;103684;280;38837;-71
2023/04/08 11:21:29;;;;;;;7.80;7.10;;;;;;;16.22;34.69;101308.02;103681;280;39415;-71
2023/04/08 11:24:03;;;;;;;7.80;7.10;;;;;;;16.19;34.66;101305.70;103552;279;175018;-73
2023/04/08 11:26:37;;;;;;;7.50;6.80;;;;;;;15.99;34.40;101306.12;103655;280;39656;-75
2023/04/08 11:29:14;;;;;;;7.10;6.40;;;;;;;15.80;34.62;101302.04;103679;280;38359;-73
2023/04/08 11:31:50;;;;;;;7.10;6.40;;;;;;;15.70;35.34;101298.07;103733;280;38523;-71
2023/04/08 11:34:27;;;;;;;6.50;5.90;;;;;;;15.73;35.66;101301.64;103668;280;39025;-73
2023/04/08 11:37:01;;;;;;;6.70;6.20;;;;;;;15.60;35.44;101301.67;103651;280;39707;-74
2023/04/08 11:39:35;;;;;;;7.30;6.70;;;;;;;15.49;35.66;101295.80;103671;280;38740;-73
2023/04/08 11:42:09;;;;;;;6.90;6.30;;;;;;;15.43;35.84;101291.31;103700;280;38505;-72
2023/04/08 11:44:43;;;;;;;7.40;6.10;;;;;;;15.38;36.02;101290.14;103525;280;39605;-72
2023/04/08 11:47:17;;;;;;;7.20;6.50;;;;;;;15.38;36.53;101292.41;103512;280;38411;-73
2023/04/08 11:49:51;;;;;;;6.20;5.60;;;;;;;15.43;36.70;101292.53;103629;280;38989;-72
2023/04/08 11:52:25;;;;;;;6.30;5.80;;;;;;;15.42;36.44;101293.64;103712;280;38705;-74
2023/04/08 11:55:00;;;;;;;6.40;5.80;;;;;;;15.34;36.49;101295.05;103640;268;38941;-73
2023/04/08 11:57:35;;;;;;;6.20;5.60;;;;;;;15.32;36.94;101293.90;103697;280;39962;-75